ADDS METAR Data INFO
IDs: Format: Raw Decoded Include TAF

Data at: 0920 UTC 13 Dec 2017

KAVK 130915Z AUTO 25008KT 10SM CLR 05/M09 A2990 RMK AO2
KAVK 130855Z AUTO 26007KT 10SM CLR 04/M08 A2991 RMK AO2
KAVK 130835Z AUTO 26009KT 10SM CLR 04/M08 A2991 RMK AO2
KAVK 130815Z AUTO 25009KT 10SM CLR 04/M08 A2991 RMK AO2
KAVK 130755Z AUTO 25008KT 10SM CLR 04/M09 A2992 RMK AO2
KAVK 130735Z AUTO 26008KT 10SM CLR 05/M08 A2993 RMK AO2
KAVK 130715Z AUTO 24011KT 10SM CLR 05/M08 A2994 RMK AO2
KAVK 130655Z AUTO 24011KT 10SM CLR 05/M08 A2994 RMK AO2
KAVK 130635Z AUTO 24012KT 10SM CLR 04/M07 A2996 RMK AO2
KAVK 130615Z AUTO 24011KT 10SM CLR 04/M07 A2996 RMK AO2
KAVK 130555Z AUTO 24010KT 10SM CLR 04/M07 A2997 RMK AO2
KAVK 130535Z AUTO 24008KT 10SM CLR 04/M07 A2998 RMK AO2
KAVK 130515Z AUTO 23009KT 10SM FEW030 FEW038 05/M07 A2999 RMK AO2
KAVK 130455Z AUTO 22009KT 10SM FEW030 FEW038 06/M07 A3000 RMK AO2
KAVK 130435Z AUTO 22009KT 10SM FEW030 FEW040 05/M07 A3001 RMK AO2
KAVK 130415Z AUTO 22010KT 10SM FEW035 05/M07 A3001 RMK AO2
KAVK 130355Z AUTO 21010KT 10SM FEW033 04/M07 A3002 RMK AO2
KAVK 130335Z AUTO 20010KT 10SM FEW030 FEW036 05/M07 A3004 RMK AO2
KAVK 130315Z AUTO 20010KT 10SM FEW040 03/M07 A3005 RMK AO2
KAVK 130255Z AUTO 21011KT 10SM FEW039 03/M07 A3006 RMK AO2
KAVK 130235Z AUTO 21012KT 10SM CLR 04/M07 A3008 RMK AO2
KAVK 130215Z AUTO 20010KT 10SM FEW032 SCT041 04/M07 A3009 RMK AO2
KAVK 130155Z AUTO 19010KT 10SM FEW032 FEW041 04/M07 A3010 RMK AO2
KAVK 130135Z AUTO 19009KT 10SM FEW041 04/M07 A3011 RMK AO2
KAVK 130115Z AUTO 19010KT 10SM CLR 05/M07 A3011 RMK AO2
KAVK 130055Z AUTO 18009KT 10SM CLR 05/M06 A3012 RMK AO2
KAVK 130035Z AUTO 18009KT 10SM FEW035 FEW045 06/M06 A3013 RMK AO2
KAVK 130015Z AUTO 18009KT 10SM FEW044 07/M06 A3014 RMK AO2
KAVK 122355Z AUTO 18008KT 10SM CLR 08/M05 A3015 RMK AO2
KAVK 122335Z AUTO 17006KT 10SM CLR 09/M05 A3016 RMK AO2
KAVK 122315Z AUTO 17007KT 10SM CLR 10/M05 A3016 RMK AO2
KAVK 122255Z AUTO 18007KT 10SM CLR 12/M05 A3017 RMK AO2
KAVK 122235Z AUTO 22005KT 10SM CLR 13/M06 A3018 RMK AO2
KAVK 122215Z AUTO 24006KT 10SM CLR 14/M06 A3020 RMK AO2
KAVK 122155Z AUTO 23008KT 10SM CLR 14/M05 A3021 RMK AO2
KAVK 122135Z AUTO 23007G12KT 10SM CLR 13/M05 A3022 RMK AO2
KAVK 122115Z AUTO 23008KT 10SM CLR 13/M05 A3022 RMK AO2
KAVK 122055Z AUTO 26007KT 10SM CLR 13/M05 A3024 RMK AO2
KAVK 122035Z AUTO 25008G14KT 10SM CLR 12/M04 A3025 RMK AO2
KAVK 122015Z AUTO 26007G13KT 10SM CLR 12/M04 A3026 RMK AO2
KAVK 121955Z AUTO 25009KT 10SM CLR 11/M04 A3027 RMK AO2
KAVK 121935Z AUTO 25011KT 10SM CLR 11/M03 A3029 RMK AO2
KAVK 121915Z AUTO 25011KT 10SM CLR 10/M03 A3030 RMK AO2
KAVK 121855Z AUTO 24012KT 10SM CLR 10/M02 A3032 RMK AO2
KAVK 121835Z AUTO 27009KT 10SM CLR 09/M02 A3034 RMK AO2
KAVK 121815Z AUTO 26007KT 10SM CLR 09/M02 A3036 RMK AO2
KAVK 121755Z AUTO 27007KT 10SM CLR 09/M01 A3038 RMK AO2
KAVK 121735Z AUTO 26007KT 10SM CLR 08/M01 A3040 RMK AO2
KAVK 121715Z AUTO VRB04KT 10SM CLR 08/M02 A3041 RMK AO2
KAVK 121655Z AUTO 27005KT 10SM CLR 07/M02 A3042 RMK AO2
KAVK 121635Z AUTO 28004KT 10SM CLR 07/M02 A3043 RMK AO2
KAVK 121615Z AUTO 30005KT 10SM CLR 06/M02 A3043 RMK AO2
KAVK 121555Z AUTO 29005KT 10SM CLR 04/M02 A3043 RMK AO2
KAVK 121535Z AUTO 30006KT 10SM CLR 03/M03 A3043 RMK AO2
KAVK 121515Z AUTO 30006KT 10SM CLR 01/M04 A3043 RMK AO2
KAVK 121455Z AUTO 29005KT 10SM CLR M00/M04 A3043 RMK AO2
KAVK 121435Z AUTO 28005KT 9SM CLR M02/M05 A3044 RMK AO2
KAVK 121415Z AUTO 28005KT 7SM CLR M03/M05 A3044 RMK AO2
KAVK 121355Z AUTO 28005KT 7SM CLR M04/M06 A3044 RMK AO2
KAVK 121335Z AUTO 28006KT 10SM SCT044 M04/M06 A3044 RMK AO2
KAVK 121315Z AUTO 29006KT 9SM OVC043 M04/M06 A3044 RMK AO2
KAVK 121255Z AUTO 28005KT 9SM OVC041 M03/M05 A3043 RMK AO2
KAVK 121235Z AUTO 29008KT 10SM OVC040 M03/M05 A3043 RMK AO2
KAVK 121215Z AUTO 30007KT 10SM SCT040 M02/M05 A3043 RMK AO2
KAVK 121155Z AUTO 30008KT 10SM CLR M02/M04 A3043 RMK AO2
KAVK 121135Z AUTO 29007KT 10SM CLR M02/M05 A3043 RMK AO2
KAVK 121115Z AUTO 29008KT 10SM CLR M02/M05 A3043 RMK AO2
KAVK 121055Z AUTO 29007KT 10SM CLR M02/M05 A3043 RMK AO2
KAVK 121035Z AUTO 28004KT 10SM CLR M02/M05 A3044 RMK AO2
KAVK 121015Z AUTO 33006KT 10SM CLR 01/M04 A3043 RMK AO2
KAVK 120955Z AUTO 33008KT 10SM CLR 01/M04 A3043 RMK AO2
KAVK 120935Z AUTO 31007KT 10SM CLR M02/M05 A3044 RMK AO2
KAVK 120915Z AUTO 31005KT 10SM CLR M02/M05 A3043 RMK AO2
KAVK 120855Z AUTO 31006KT 10SM CLR 00/M04 A3043 RMK AO2
KAVK 120835Z AUTO 33008KT 10SM CLR 01/M04 A3042 RMK AO2
KAVK 120815Z AUTO 33009KT 10SM CLR 01/M04 A3042 RMK AO2
KAVK 120755Z AUTO 33006KT 10SM CLR 02/M04 A3041 RMK AO2
KAVK 120735Z AUTO 33008KT 10SM CLR 02/M04 A3041 RMK AO2
KAVK 120715Z AUTO 33008KT 10SM CLR 02/M04 A3042 RMK AO2
KAVK 120655Z AUTO 32005KT 10SM CLR 04/M03 A3041 RMK AO2
KAVK 120635Z AUTO 34009KT 10SM CLR 04/M03 A3041 RMK AO2
KAVK 120615Z AUTO 35009KT 10SM CLR 04/M03 A3041 RMK AO2
KAVK 120555Z AUTO 35008KT 10SM CLR 05/M03 A3040 RMK AO2
KAVK 120535Z AUTO 35010KT 10SM FEW050 05/M03 A3040 RMK AO2
KAVK 120515Z AUTO 35011G17KT 10SM BKN050 BKN065 06/M03 A3039 RMK AO2
KAVK 120455Z AUTO 36013KT 10SM BKN060 OVC070 06/M03 A3038 RMK AO2
KAVK 120435Z AUTO 36011G17KT 10SM OVC065 07/M03 A3038 RMK AO2
KAVK 120415Z AUTO 36013G19KT 10SM BKN065 OVC075 07/M04 A3037 RMK AO2
KAVK 120355Z AUTO 02013KT 10SM OVC065 08/M04 A3036 RMK AO2
KAVK 120335Z AUTO 01009KT 10SM OVC070 07/M05 A3035 RMK AO2
KAVK 120315Z AUTO 01010KT 10SM BKN065 08/M06 A3033 RMK AO2
KAVK 120255Z AUTO 01010KT 10SM FEW034 09/M07 A3032 RMK AO2
KAVK 120235Z AUTO 35011KT 10SM FEW030 SCT036 SCT046 10/M07 A3031 RMK AO2
KAVK 120215Z AUTO 34011KT 10SM FEW048 FEW060 10/M08 A3030 RMK AO2
KAVK 120155Z AUTO 34012G17KT 10SM FEW049 SCT060 SCT085 11/M08 A3029 RMK AO2
KAVK 120135Z AUTO 35016KT 10SM FEW026 FEW041 SCT048 11/M10 A3028 RMK AO2
KAVK 120115Z AUTO 35009KT 10SM FEW038 BKN046 BKN055 11/M11 A3025 RMK AO2
KAVK 120055Z AUTO 35010KT 10SM FEW039 BKN046 BKN055 11/M11 A3024 RMK AO2
KAVK 120035Z AUTO 35011KT 10SM SCT046 BKN055 12/M10 A3022 RMK AO2
KAVK 120015Z AUTO 35015KT 10SM FEW037 FEW043 BKN055 13/M10 A3021 RMK AO2
KAVK 112355Z AUTO 35008KT 10SM CLR 13/M09 A3019 RMK AO2
KAVK 112335Z AUTO 35012KT 10SM CLR 15/M09 A3018 RMK AO2
KAVK 112315Z AUTO 34009G14KT 10SM CLR 15/M09 A3017 RMK AO2
KAVK 112255Z AUTO 34008KT 10SM CLR 17/M09 A3016 RMK AO2
KAVK 112235Z AUTO 34009G14KT 10SM CLR 18/M09 A3016 RMK AO2
KAVK 112215Z AUTO 33011KT 10SM CLR 19/M09 A3015 RMK AO2
KAVK 112155Z AUTO 34012KT 10SM CLR 19/M09 A3015 RMK AO2
KAVK 112135Z AUTO 34014G19KT 10SM CLR 19/M09 A3014 RMK AO2